createdAt,value
2018-12-05T00:01:17.585Z,10.33
2018-12-05T00:03:45.249Z,9.20
2018-12-05T00:06:12.953Z,7.53
2018-12-05T00:08:40.679Z,8.83
2018-12-05T00:11:08.353Z,8.17
2018-12-05T00:13:36.086Z,8.47
2018-12-05T00:16:03.812Z,8.67
2018-12-05T00:18:31.534Z,8.30
2018-12-05T00:20:59.211Z,7.93
2018-12-05T00:23:26.901Z,7.53
2018-12-05T00:25:54.593Z,8.43
2018-12-05T00:28:22.313Z,8.23
2018-12-05T00:30:50.005Z,7.73
2018-12-05T00:33:17.689Z,7.50
2018-12-05T00:35:45.551Z,6.70
2018-12-05T00:38:13.225Z,6.50
2018-12-05T00:40:40.889Z,7.27
2018-12-05T00:43:08.587Z,7.00
2018-12-05T00:45:36.269Z,5.90
2018-12-05T00:48:04.121Z,6.77
2018-12-05T00:50:31.820Z,6.73
2018-12-05T00:52:59.505Z,6.97
2018-12-05T00:55:27.183Z,6.60
2018-12-05T00:57:54.903Z,6.20
2018-12-05T01:00:22.593Z,6.60
2018-12-05T01:02:50.304Z,5.93
2018-12-05T01:05:18.004Z,6.33
2018-12-05T01:07:45.719Z,5.70
2018-12-05T01:10:13.426Z,6.30
2018-12-05T01:12:41.135Z,6.13
2018-12-05T01:15:08.929Z,4.87
2018-12-05T01:17:36.647Z,5.30
2018-12-05T01:20:05.401Z,5.17
2018-12-05T01:22:33.069Z,4.80
2018-12-05T01:25:00.784Z,5.13
2018-12-05T01:27:28.493Z,6.33
2018-12-05T01:29:56.197Z,4.70
2018-12-05T01:32:23.877Z,5.10
2018-12-05T01:34:51.622Z,5.30
2018-12-05T01:37:19.347Z,5.00
2018-12-05T01:39:47.997Z,5.13
2018-12-05T01:42:15.785Z,5.20
2018-12-05T01:44:43.602Z,5.17
2018-12-05T01:47:11.404Z,4.63
2018-12-05T01:49:39.089Z,4.33
2018-12-05T01:52:06.763Z,5.03
2018-12-05T01:54:34.483Z,4.73
2018-12-05T01:57:02.227Z,4.17
2018-12-05T01:59:29.933Z,4.30
2018-12-05T02:01:57.625Z,4.20
2018-12-05T02:04:25.367Z,4.97
2018-12-05T02:06:53.043Z,4.03
2018-12-05T02:09:20.723Z,5.43
2018-12-05T02:11:48.441Z,5.13
2018-12-05T02:14:16.145Z,4.77
2018-12-05T02:16:43.813Z,4.63
2018-12-05T02:19:11.549Z,4.37
2018-12-05T02:21:39.259Z,4.07
2018-12-05T02:24:07.042Z,5.43
2018-12-05T02:26:34.733Z,4.90
2018-12-05T02:29:02.400Z,4.30
2018-12-05T02:31:30.229Z,5.40
2018-12-05T02:33:57.928Z,5.07
2018-12-05T02:36:25.611Z,4.53
2018-12-05T02:38:53.374Z,5.00
2018-12-05T02:41:21.081Z,5.43
2018-12-05T02:43:48.827Z,4.87
2018-12-05T02:46:16.529Z,6.10
2018-12-05T02:48:44.281Z,5.83
2018-12-05T02:51:12.014Z,4.90
2018-12-05T02:53:39.731Z,5.20
2018-12-05T02:56:07.490Z,5.47
2018-12-05T02:58:35.192Z,8.10
2018-12-05T03:01:02.903Z,5.40
2018-12-05T03:03:30.609Z,5.10
2018-12-05T03:05:58.397Z,4.97
2018-12-05T03:08:26.107Z,4.90
2018-12-05T03:10:53.873Z,4.87
2018-12-05T03:13:21.537Z,4.77
2018-12-05T03:15:49.230Z,4.70
2018-12-05T03:18:16.941Z,6.07
2018-12-05T03:20:44.649Z,4.67
2018-12-05T03:23:12.334Z,5.87
2018-12-05T03:25:40.068Z,3.93
2018-12-05T03:28:07.728Z,4.83
2018-12-05T03:30:35.429Z,4.50
2018-12-05T03:33:03.145Z,4.27
2018-12-05T03:35:45.780Z,4.00
2018-12-05T03:38:13.649Z,4.73
2018-12-05T03:40:41.381Z,4.30
2018-12-05T03:43:09.110Z,3.90
2018-12-05T03:45:36.817Z,3.93
2018-12-05T03:48:04.584Z,3.67
2018-12-05T03:50:32.281Z,4.80
2018-12-05T03:53:00.027Z,4.10
2018-12-05T03:55:27.693Z,5.40
2018-12-05T03:57:55.401Z,3.80
2018-12-05T04:00:23.146Z,3.63
2018-12-05T04:02:50.825Z,4.00
2018-12-05T04:05:18.654Z,3.37
2018-12-05T04:07:46.397Z,5.37
2018-12-05T04:10:14.097Z,4.50
2018-12-05T04:12:41.801Z,4.23
2018-12-05T04:15:16.362Z,4.13
2018-12-05T04:17:44.062Z,4.83
2018-12-05T04:20:11.904Z,4.80
2018-12-05T04:22:39.694Z,4.00
2018-12-05T04:25:07.466Z,3.57
2018-12-05T04:27:35.207Z,3.70
2018-12-05T04:30:03.310Z,3.63
2018-12-05T04:32:31.041Z,3.30
2018-12-05T04:34:58.829Z,4.20
2018-12-05T04:37:27.591Z,4.33
2018-12-05T04:39:55.380Z,3.40
2018-12-05T04:42:23.101Z,3.43
2018-12-05T04:44:50.804Z,3.30
2018-12-05T04:47:18.483Z,3.67
2018-12-05T04:49:46.293Z,3.43
2018-12-05T04:52:14.055Z,8.27
2018-12-05T04:54:41.744Z,3.87
2018-12-05T04:57:09.445Z,5.27
2018-12-05T04:59:37.205Z,5.17
2018-12-05T05:02:05.137Z,4.57
2018-12-05T05:04:32.854Z,4.70
2018-12-05T05:07:00.591Z,4.50
2018-12-05T05:09:28.279Z,3.57
2018-12-05T05:11:56.025Z,4.37
2018-12-05T05:14:23.827Z,4.93
2018-12-05T05:16:51.507Z,4.37
2018-12-05T05:19:19.207Z,4.43
2018-12-05T05:21:46.920Z,5.53
2018-12-05T05:24:14.627Z,4.63
2018-12-05T05:26:42.289Z,5.23
2018-12-05T05:29:10.021Z,5.27
2018-12-05T05:31:37.739Z,6.67
2018-12-05T05:34:05.514Z,6.20
2018-12-05T05:36:33.247Z,7.43
2018-12-05T05:39:00.928Z,7.30
2018-12-05T05:41:28.615Z,5.20
2018-12-05T05:43:56.496Z,7.60
2018-12-05T05:46:24.259Z,7.80
2018-12-05T05:48:51.989Z,5.23
2018-12-05T05:51:19.707Z,5.37
2018-12-05T05:53:47.413Z,5.70
2018-12-05T05:56:15.109Z,5.23
2018-12-05T05:58:42.859Z,5.03
2018-12-05T06:01:10.601Z,7.57
2018-12-05T06:03:38.292Z,6.63
2018-12-05T06:06:06.073Z,6.27
2018-12-05T06:08:33.812Z,5.43
2018-12-05T06:11:01.675Z,5.53
2018-12-05T06:13:29.428Z,4.63
2018-12-05T06:15:57.354Z,5.10
2018-12-05T06:18:25.196Z,6.07
2018-12-05T06:20:53.111Z,5.93
2018-12-05T06:23:20.821Z,6.47
2018-12-05T06:25:48.597Z,7.00
2018-12-05T06:28:16.384Z,7.43
2018-12-05T06:30:44.108Z,7.00
2018-12-05T06:33:11.849Z,6.83
2018-12-05T06:35:39.626Z,6.10
2018-12-05T06:40:41.789Z,5.83
2018-12-05T06:43:09.537Z,5.57
2018-12-05T06:45:37.281Z,4.67
2018-12-05T06:48:04.969Z,4.90
2018-12-05T06:50:32.975Z,8.07
2018-12-05T06:53:00.705Z,6.20
2018-12-05T06:55:28.356Z,5.87
2018-12-05T06:57:56.003Z,7.37
2018-12-05T07:00:23.725Z,4.63
2018-12-05T07:02:51.449Z,6.03
2018-12-05T07:05:19.158Z,5.13
2018-12-05T07:07:46.835Z,6.33
2018-12-05T07:10:14.539Z,7.00
2018-12-05T07:12:42.202Z,6.53
2018-12-05T07:15:09.827Z,6.17
2018-12-05T07:17:37.666Z,5.50
2018-12-05T07:20:07.501Z,5.13
2018-12-05T07:22:35.179Z,5.73
2018-12-05T07:25:03.021Z,6.17
2018-12-05T07:27:30.743Z,5.63
2018-12-05T07:29:58.450Z,6.50
2018-12-05T07:32:26.214Z,6.67
2018-12-05T07:34:53.874Z,5.30
2018-12-05T07:37:21.537Z,6.17
2018-12-05T07:39:49.317Z,6.27
2018-12-05T07:42:16.979Z,5.33
2018-12-05T07:44:44.617Z,5.53
2018-12-05T07:47:12.336Z,6.53
2018-12-05T07:49:40.005Z,5.23
2018-12-05T07:52:07.663Z,5.90
2018-12-05T07:54:35.382Z,5.43
2018-12-05T07:57:03.151Z,6.97
2018-12-05T07:59:30.782Z,6.33
2018-12-05T08:01:58.441Z,6.27
2018-12-05T08:04:26.082Z,6.00
2018-12-05T08:06:53.717Z,10.27
2018-12-05T08:09:21.394Z,9.63
2018-12-05T08:11:49.059Z,8.17
2018-12-05T08:14:16.717Z,9.07
2018-12-05T08:16:44.400Z,9.33
2018-12-05T08:19:12.040Z,6.20
2018-12-05T08:21:39.788Z,7.73
2018-12-05T08:24:07.457Z,9.93
2018-12-05T08:29:09.424Z,7.73
2018-12-05T08:31:37.094Z,8.07
2018-12-05T08:34:04.804Z,9.00
2018-12-05T08:36:32.480Z,7.87
2018-12-05T08:39:00.132Z,6.83
2018-12-05T08:41:27.816Z,7.17
2018-12-05T08:43:55.528Z,8.77
2018-12-05T08:46:23.186Z,8.10
2018-12-05T08:48:52.115Z,7.40
2018-12-05T08:51:20.100Z,6.93
2018-12-05T08:53:47.767Z,7.60
2018-12-05T08:56:15.549Z,7.17
2018-12-05T08:58:43.226Z,7.70
2018-12-05T09:01:10.940Z,7.13
2018-12-05T09:03:38.593Z,6.00
2018-12-05T09:06:06.346Z,7.37
2018-12-05T09:08:34.223Z,7.20
2018-12-05T09:11:01.938Z,6.73
2018-12-05T09:13:30.172Z,7.23
2018-12-05T09:15:57.830Z,5.83
2018-12-05T09:18:25.546Z,7.57
2018-12-05T09:20:53.250Z,8.13
2018-12-05T09:23:20.907Z,8.00
2018-12-05T09:25:48.626Z,10.23
2018-12-05T09:28:16.285Z,8.83
2018-12-05T09:30:43.948Z,9.23
2018-12-05T09:33:11.748Z,6.77
2018-12-05T09:35:41.339Z,10.10
2018-12-05T09:38:08.951Z,7.97
2018-12-05T09:40:36.620Z,6.77
2018-12-05T09:43:04.459Z,12.10
2018-12-05T09:45:32.124Z,9.97
2018-12-05T09:47:59.801Z,9.20
2018-12-05T09:50:27.486Z,8.20
2018-12-05T09:52:55.170Z,6.73
2018-12-05T09:55:22.880Z,7.03
2018-12-05T09:57:50.586Z,6.67
2018-12-05T10:00:18.244Z,7.40
2018-12-05T10:02:45.920Z,7.60
2018-12-05T10:05:13.612Z,6.97
2018-12-05T10:07:41.296Z,7.17
2018-12-05T10:10:09.241Z,6.23
2018-12-05T10:12:36.921Z,7.03
2018-12-05T10:15:05.757Z,8.53
2018-12-05T10:17:33.463Z,9.17
2018-12-05T10:20:01.131Z,7.87
2018-12-05T10:22:28.821Z,7.77
2018-12-05T10:24:56.500Z,9.10
2018-12-05T10:27:26.013Z,9.53
2018-12-05T10:29:53.745Z,9.20
2018-12-05T10:32:21.412Z,9.33
2018-12-05T10:34:49.129Z,7.87
2018-12-05T10:37:16.941Z,7.53
2018-12-05T10:39:44.591Z,6.97
2018-12-05T10:42:12.295Z,7.07
2018-12-05T10:44:39.978Z,7.43
2018-12-05T10:47:07.669Z,8.40
2018-12-05T10:49:35.357Z,7.87
2018-12-05T10:52:09.640Z,7.83
2018-12-05T10:54:37.366Z,17.87
2018-12-05T10:57:05.178Z,9.17
2018-12-05T10:59:32.984Z,12.13
2018-12-05T11:03:04.296Z,10.27
2018-12-05T11:05:37.668Z,11.77
2018-12-05T11:08:10.904Z,10.83
2018-12-05T11:10:44.364Z,7.27
2018-12-05T11:13:19.269Z,8.77
2018-12-05T11:15:53.642Z,8.17
2018-12-05T11:18:27.122Z,8.53
2018-12-05T11:21:00.410Z,9.17
2018-12-05T11:23:33.650Z,8.43
2018-12-05T11:26:05.867Z,7.63
2018-12-05T11:28:33.708Z,8.83
2018-12-05T11:31:01.412Z,7.50
2018-12-05T11:33:29.310Z,6.93
2018-12-05T11:35:57.068Z,6.57
2018-12-05T11:38:24.804Z,8.47
2018-12-05T11:40:52.618Z,7.30
2018-12-05T11:43:20.448Z,6.90
2018-12-05T11:45:48.116Z,7.00
2018-12-05T11:48:15.920Z,6.10
2018-12-05T11:50:43.572Z,6.90
2018-12-05T11:53:11.234Z,6.30
2018-12-05T11:55:38.897Z,8.17
2018-12-05T11:58:06.572Z,7.53
2018-12-05T12:00:34.286Z,8.10
2018-12-05T12:03:02.797Z,7.70
2018-12-05T12:05:30.464Z,8.10
2018-12-05T12:07:58.116Z,8.67
2018-12-05T12:10:31.488Z,8.47
2018-12-05T12:13:05.370Z,8.80
2018-12-05T12:15:33.235Z,11.03
2018-12-05T12:18:01.420Z,10.03
2018-12-05T12:20:29.172Z,8.80
2018-12-05T12:22:56.864Z,10.43
2018-12-05T12:25:25.119Z,10.07
2018-12-05T12:27:52.760Z,9.07
2018-12-05T12:30:20.474Z,8.67
2018-12-05T12:32:48.152Z,9.40
2018-12-05T12:35:15.843Z,8.97
2018-12-05T12:37:43.512Z,9.00
2018-12-05T12:40:11.182Z,15.40
2018-12-05T12:42:38.864Z,15.97
2018-12-05T12:45:07.084Z,10.83
2018-12-05T12:47:34.770Z,11.47
2018-12-05T12:50:02.604Z,13.27
2018-12-05T12:52:30.322Z,10.70
2018-12-05T12:54:58.167Z,9.73
2018-12-05T12:57:29.308Z,9.57
2018-12-05T12:59:57.312Z,8.83
2018-12-05T13:02:24.994Z,12.93
2018-12-05T13:04:52.709Z,13.13
2018-12-05T13:07:20.475Z,9.37
2018-12-05T13:09:48.188Z,13.53
2018-12-05T13:12:21.604Z,11.90
2018-12-05T13:14:49.344Z,11.50
2018-12-05T13:17:17.032Z,13.47
2018-12-05T13:19:44.749Z,10.63
2018-12-05T13:22:12.524Z,11.43
2018-12-05T13:24:40.232Z,10.80
2018-12-05T13:27:07.997Z,9.43
2018-12-05T13:29:35.697Z,11.90
2018-12-05T13:32:03.470Z,12.13
2018-12-05T13:34:31.220Z,12.27
2018-12-05T13:36:59.008Z,12.30
2018-12-05T13:39:26.845Z,11.07
2018-12-05T13:41:54.617Z,9.90
2018-12-05T13:44:22.356Z,11.40
2018-12-05T13:46:50.200Z,13.53
2018-12-05T13:49:18.081Z,12.37
2018-12-05T13:51:45.885Z,12.67
2018-12-05T13:54:14.835Z,12.10
2018-12-05T13:56:42.779Z,13.60
2018-12-05T13:59:10.475Z,13.57
2018-12-05T14:01:38.178Z,12.37
2018-12-05T14:04:05.885Z,12.80
2018-12-05T14:06:33.573Z,12.40
2018-12-05T14:09:01.376Z,13.13
2018-12-05T14:11:29.142Z,14.83
2018-12-05T14:13:56.865Z,13.43
2018-12-05T14:16:24.563Z,13.87
2018-12-05T14:18:54.015Z,13.70
2018-12-05T14:21:21.769Z,13.30
2018-12-05T14:23:49.740Z,14.83
2018-12-05T14:26:17.438Z,16.93
2018-12-05T14:28:45.101Z,17.80
2018-12-05T14:31:12.873Z,19.83
2018-12-05T14:33:40.621Z,22.47
2018-12-05T14:36:08.316Z,22.13
2018-12-05T14:38:36.028Z,19.47
2018-12-05T14:41:04.149Z,20.70
2018-12-05T14:43:31.848Z,18.80
2018-12-05T14:45:59.645Z,26.13
2018-12-05T14:48:27.425Z,30.40
2018-12-05T14:50:55.165Z,19.87
2018-12-05T14:53:22.989Z,18.00
2018-12-05T14:55:50.703Z,17.50
2018-12-05T14:58:18.510Z,15.70
2018-12-05T15:00:46.886Z,35.00
2018-12-05T15:03:14.599Z,29.67
2018-12-05T15:05:42.363Z,30.00
2018-12-05T15:08:10.109Z,34.27
2018-12-05T15:10:38.002Z,41.47
2018-12-05T15:13:12.538Z,44.70
2018-12-05T15:15:40.402Z,27.37
2018-12-05T15:18:08.161Z,27.83
2018-12-05T15:20:36.027Z,23.23
2018-12-05T15:23:03.938Z,19.70
2018-12-05T15:25:31.635Z,17.37
2018-12-05T15:27:59.321Z,20.63
2018-12-05T15:30:27.171Z,16.83
2018-12-05T15:32:56.923Z,19.57
2018-12-05T15:35:24.753Z,20.20
2018-12-05T15:37:52.469Z,19.63
2018-12-05T15:40:20.207Z,21.00
2018-12-05T15:42:47.899Z,17.57
2018-12-05T15:45:22.355Z,17.43
2018-12-05T15:47:50.051Z,17.60
2018-12-05T15:50:18.167Z,16.67
2018-12-05T15:52:46.065Z,17.47
2018-12-05T15:55:14.077Z,19.07
2018-12-05T15:57:41.744Z,17.43
2018-12-05T16:00:09.973Z,18.60
2018-12-05T16:02:37.666Z,19.83
2018-12-05T16:05:06.435Z,19.57
2018-12-05T16:07:34.154Z,18.57
2018-12-05T16:10:01.900Z,19.87
2018-12-05T16:12:29.569Z,20.03
2018-12-05T16:14:57.300Z,21.67
2018-12-05T16:17:24.960Z,20.37
2018-12-05T16:19:52.643Z,19.73
2018-12-05T16:22:20.309Z,19.17
2018-12-05T16:24:47.985Z,19.23
2018-12-05T16:27:15.636Z,17.27
2018-12-05T16:29:43.533Z,17.00
2018-12-05T16:32:11.228Z,18.23
2018-12-05T16:34:39.659Z,17.73
2018-12-05T16:37:07.415Z,16.90
2018-12-05T16:39:35.121Z,18.63
2018-12-05T16:42:02.794Z,18.27
2018-12-05T16:44:30.468Z,17.47
2018-12-05T16:46:58.231Z,18.33
2018-12-05T16:49:25.932Z,19.33
2018-12-05T16:51:53.694Z,19.60
2018-12-05T16:54:22.130Z,18.70
2018-12-05T16:56:50.122Z,23.80
2018-12-05T16:59:17.869Z,21.80
2018-12-05T17:01:45.640Z,31.53
2018-12-05T17:04:13.381Z,32.17
2018-12-05T17:06:41.073Z,25.93
2018-12-05T17:09:08.832Z,25.63
2018-12-05T17:11:36.669Z,26.93
2018-12-05T17:14:04.404Z,35.07
2018-12-05T17:16:32.145Z,31.03
2018-12-05T17:18:59.860Z,28.13
2018-12-05T17:21:27.588Z,25.03
2018-12-05T17:23:55.339Z,24.33
2018-12-05T17:26:23.186Z,23.67
2018-12-05T17:28:50.904Z,23.50
2018-12-05T17:31:18.603Z,22.07
2018-12-05T17:33:46.316Z,22.20
2018-12-05T17:36:14.141Z,22.57
2018-12-05T17:38:41.892Z,22.70
2018-12-05T17:41:09.570Z,23.40
2018-12-05T17:43:37.283Z,24.03
2018-12-05T17:46:04.957Z,25.97
2018-12-05T17:48:32.585Z,27.47
2018-12-05T17:51:00.381Z,28.33
2018-12-05T17:53:28.099Z,29.13
2018-12-05T17:55:55.794Z,27.23
2018-12-05T17:58:23.505Z,29.70
2018-12-05T18:00:51.196Z,30.80
2018-12-05T18:03:18.850Z,32.37
2018-12-05T18:05:46.546Z,35.47
2018-12-05T18:08:14.296Z,29.57
2018-12-05T18:10:41.978Z,27.97
2018-12-05T18:13:11.743Z,27.17
2018-12-05T18:15:39.418Z,28.60
2018-12-05T18:18:07.126Z,28.50
2018-12-05T18:20:34.864Z,30.93
2018-12-05T18:23:02.570Z,31.13
2018-12-05T18:25:30.290Z,34.73
2018-12-05T18:27:58.053Z,36.57
2018-12-05T18:30:25.732Z,39.67
2018-12-05T18:32:53.458Z,38.80
2018-12-05T18:35:21.171Z,41.70
2018-12-05T18:37:48.863Z,41.03
2018-12-05T18:40:16.798Z,45.13
2018-12-05T18:42:44.638Z,45.50
2018-12-05T18:45:12.469Z,51.70
2018-12-05T18:47:40.263Z,58.50
2018-12-05T18:50:08.102Z,57.90
2018-12-05T18:52:35.785Z,54.23
2018-12-05T18:55:03.845Z,55.47
2018-12-05T18:57:31.693Z,51.13
2018-12-05T19:00:01.415Z,46.70
2018-12-05T19:02:29.567Z,48.23
2018-12-05T19:04:57.443Z,45.90
2018-12-05T19:07:25.143Z,42.57
2018-12-05T19:09:52.829Z,43.53
2018-12-05T19:12:20.612Z,37.30
2018-12-05T19:14:48.293Z,34.83
2018-12-05T19:17:16.022Z,31.47
2018-12-05T19:19:43.826Z,30.03
2018-12-05T19:22:11.922Z,27.90
2018-12-05T19:24:39.670Z,29.27
2018-12-05T19:27:07.397Z,29.07
2018-12-05T19:29:35.110Z,30.03
2018-12-05T19:32:02.844Z,31.27
2018-12-05T19:34:30.586Z,32.07
2018-12-05T19:36:58.294Z,33.93
2018-12-05T19:39:25.976Z,32.13
2018-12-05T19:41:54.176Z,33.40
2018-12-05T19:44:21.958Z,31.53
2018-12-05T19:46:49.704Z,34.60
2018-12-05T19:49:17.434Z,30.30
2018-12-05T19:51:45.170Z,33.87
2018-12-05T19:54:12.931Z,35.70
2018-12-05T19:56:40.658Z,34.23
2018-12-05T19:59:08.382Z,32.60
2018-12-05T20:01:36.058Z,33.27
2018-12-05T20:04:03.998Z,35.03
2018-12-05T20:06:31.750Z,35.83
2018-12-05T20:08:59.467Z,38.83
2018-12-05T20:11:27.350Z,41.23
2018-12-05T20:13:55.090Z,37.07
2018-12-05T20:16:23.406Z,38.90
2018-12-05T20:18:51.194Z,39.10
2018-12-05T20:21:18.918Z,33.27
2018-12-05T20:23:46.700Z,32.77
2018-12-05T20:26:14.486Z,31.17
2018-12-05T20:28:42.350Z,32.13
2018-12-05T20:31:10.122Z,31.27
2018-12-05T20:33:37.930Z,33.30
2018-12-05T20:36:06.118Z,37.13
2018-12-05T20:38:34.164Z,41.50
2018-12-05T20:41:02.042Z,41.53
2018-12-05T20:43:30.013Z,39.57
2018-12-05T20:45:57.754Z,47.40
2018-12-05T20:48:25.515Z,38.93
2018-12-05T20:50:53.402Z,45.70
2018-12-05T20:53:21.106Z,73.03
2018-12-05T20:55:48.860Z,76.60
2018-12-05T20:58:16.600Z,71.63
2018-12-05T21:00:44.366Z,91.17
2018-12-05T21:03:12.187Z,128.13
2018-12-05T21:05:40.080Z,140.97
2018-12-05T21:08:11.896Z,99.47
2018-12-05T21:10:46.354Z,112.63
2018-12-05T21:13:14.107Z,58.43
2018-12-05T21:15:41.907Z,52.17
2018-12-05T21:18:09.683Z,36.97
2018-12-05T21:20:37.407Z,38.47
2018-12-05T21:23:05.248Z,46.67
2018-12-05T21:25:33.070Z,45.03
2018-12-05T21:28:01.025Z,39.77
2018-12-05T21:30:28.826Z,38.77
2018-12-05T21:32:56.559Z,39.47
2018-12-05T21:35:24.290Z,32.37
2018-12-05T21:37:52.070Z,36.23
2018-12-05T21:40:23.043Z,34.33
2018-12-05T21:42:52.703Z,32.27
2018-12-05T21:45:20.412Z,28.10
2018-12-05T21:47:48.241Z,26.00
2018-12-05T21:50:15.975Z,25.13
2018-12-05T21:52:51.158Z,23.27
2018-12-05T21:55:18.951Z,24.33
2018-12-05T21:57:46.731Z,26.80
2018-12-05T22:00:14.702Z,25.47
2018-12-05T22:02:46.440Z,28.87
2018-12-05T22:05:14.192Z,43.23
2018-12-05T22:07:41.976Z,35.83
2018-12-05T22:10:09.855Z,35.57
2018-12-05T22:12:37.660Z,55.50
2018-12-05T22:15:06.254Z,45.97
2018-12-05T22:17:34.417Z,62.57
2018-12-05T22:20:02.182Z,74.60
2018-12-05T22:22:29.975Z,62.77
2018-12-05T22:24:57.740Z,73.20
2018-12-05T22:27:25.470Z,81.97
2018-12-05T22:29:53.282Z,99.83
2018-12-05T22:32:21.016Z,118.50
2018-12-05T22:34:48.738Z,138.37
2018-12-05T22:37:16.522Z,135.80
2018-12-05T22:39:44.246Z,125.07
2018-12-05T22:42:11.958Z,124.97
2018-12-05T22:44:39.720Z,112.70
2018-12-05T22:47:07.426Z,107.90
2018-12-05T22:49:35.178Z,114.17
2018-12-05T22:52:02.930Z,117.23
2018-12-05T22:54:30.678Z,114.47
2018-12-05T22:57:09.866Z,117.83
2018-12-05T22:59:37.586Z,109.83
2018-12-05T23:02:05.314Z,116.60
2018-12-05T23:04:33.112Z,111.37
2018-12-05T23:07:00.875Z,109.03
2018-12-05T23:09:28.656Z,108.17
2018-12-05T23:11:56.546Z,113.93
2018-12-05T23:14:24.324Z,124.07
2018-12-05T23:16:52.268Z,116.53
2018-12-05T23:19:20.068Z,115.47
2018-12-05T23:21:47.826Z,116.33
2018-12-05T23:24:15.586Z,104.47
2018-12-05T23:26:43.386Z,120.87
2018-12-05T23:29:11.136Z,111.23
2018-12-05T23:31:38.890Z,135.87
2018-12-05T23:34:06.804Z,131.33
2018-12-05T23:36:34.532Z,141.20
2018-12-05T23:39:03.681Z,142.80
2018-12-05T23:41:31.446Z,137.67
2018-12-05T23:43:59.217Z,135.83
2018-12-05T23:46:26.939Z,128.83
2018-12-05T23:48:54.706Z,124.93
2018-12-05T23:51:22.462Z,119.70
2018-12-05T23:53:50.182Z,112.70
2018-12-05T23:56:17.927Z,111.07
2018-12-05T23:58:45.638Z,109.90
